KCBF

Council Bluffs Municipal Airport

Council Bluffs, Iowa, USA
METAR KCBF 222035Z AUTO 04005KT 10SM CLR 21/M04 A3014 RMK AO2
Observed Flight Rules
Oct-22 @ 20:35 UTC (15 minutes ago) Visual Flight Rules
Wind Visibility Clouds
40° at 5 knots 10 miles
  • Clear skies
Temperatures Readings
Current 21°C / 70°F
Dewpoint -4°C / 25°F
Humidity 18%
Altimeter 30.14" Hg
Pressure 1021 hPa
Elevation 382
METAR KCBF 222035Z AUTO 04005KT 10SM CLR 21/M04 A3014 RMK AO2
Observed Flight Rules
Oct-22 @ 20:35 UTC
(15 minutes ago)
VFR
Wind Visibility
40° at 5 knots 10 miles
Clouds
  • Clear skies
Temperature Dewpoint
21°C / 70°F -4°C / 25°F
Humidity Altimeter Pressure
18% 30.14" Hg 1021 hPa